Terminal Aerodrome Forecast
Issued by NWS

Home | Current Version | Previous Version | Text Only | Print | Product List | Glossary On
Versions: 1 2 3 4 5 6 7 8 9 10 11 12 13 14 15 16 17 18 19 20 21 22
000
FTUS41 KPBZ 220027 AAA
TAFFKL
TAF AMD
KFKL 220027Z 2200/2224 36008KT P6SM -RA OVC010
     FM220300 01005KT P6SM OVC035
     FM220700 03005KT P6SM -RA OVC035
     FM221000 04008KT 2SM -FZRASN BR OVC015
     FM221500 07008KT 2SM -FZRA BR OVC005
     FM221800 06005KT P6SM OVC008
     FM222100 07005KT P6SM OVC010=

USA.gov is the U.S. government's official web portal to all federal, state and local government web resources and services.